createdAt,value
2023-05-21T00:01:18.039Z,16.50
2023-05-21T00:03:47.705Z,16.40
2023-05-21T00:06:16.220Z,16.40
2023-05-21T00:08:44.491Z,16.40
2023-05-21T00:11:12.646Z,16.40
2023-05-21T00:13:40.991Z,16.40
2023-05-21T00:16:11.245Z,16.40
2023-05-21T00:18:40.324Z,16.30
2023-05-21T00:21:10.034Z,16.30
2023-05-21T00:23:39.709Z,16.30
2023-05-21T00:26:07.921Z,16.20
2023-05-21T00:28:36.145Z,16.20
2023-05-21T00:31:04.362Z,16.20
2023-05-21T00:33:32.586Z,16.20
2023-05-21T00:36:02.076Z,16.20
2023-05-21T00:38:32.893Z,16.20
2023-05-21T00:41:02.728Z,16.10
2023-05-21T00:43:32.887Z,16.10
2023-05-21T00:46:01.079Z,16.10
2023-05-21T00:48:29.318Z,16.10
2023-05-21T00:50:57.512Z,16.10
2023-05-21T00:53:25.782Z,16.10
2023-05-21T00:55:55.418Z,16.10
2023-05-21T00:58:23.708Z,16.10
2023-05-21T01:00:55.608Z,16.20
2023-05-21T01:03:24.280Z,16.20
2023-05-21T01:05:54.187Z,16.20
2023-05-21T01:08:22.756Z,16.20
2023-05-21T01:10:51.532Z,16.20
2023-05-21T01:13:23.179Z,16.30
2023-05-21T01:15:52.163Z,16.30
2023-05-21T01:18:21.350Z,16.30
2023-05-21T01:20:50.209Z,16.20
2023-05-21T01:23:20.887Z,16.20
2023-05-21T01:25:49.124Z,16.20
2023-05-21T01:28:17.271Z,16.10
2023-05-21T01:30:45.934Z,16.20
2023-05-21T01:33:20.280Z,16.20
2023-05-21T01:35:52.879Z,16.20
2023-05-21T01:38:27.152Z,16.20
2023-05-21T01:40:58.754Z,16.20
2023-05-21T01:43:30.487Z,16.20
2023-05-21T01:46:00.031Z,16.20
2023-05-21T01:48:30.408Z,16.20
2023-05-21T01:51:02.559Z,16.20
2023-05-21T01:53:32.299Z,16.20
2023-05-21T01:56:00.737Z,16.20
2023-05-21T01:58:28.993Z,16.10
2023-05-21T02:00:57.205Z,16.20
2023-05-21T02:03:27.988Z,16.20
2023-05-21T02:05:56.519Z,16.20
2023-05-21T02:08:25.567Z,16.10
2023-05-21T02:10:55.207Z,16.10
2023-05-21T02:13:26.550Z,16.10
2023-05-21T02:15:56.236Z,16.10
2023-05-21T02:18:24.642Z,16.10
2023-05-21T02:20:52.835Z,16.10
2023-05-21T02:23:21.155Z,16.00
2023-05-21T02:25:49.445Z,16.00
2023-05-21T02:28:18.960Z,16.00
2023-05-21T02:30:47.151Z,16.00
2023-05-21T02:33:17.287Z,16.00
2023-05-21T02:35:45.506Z,15.90
2023-05-21T02:38:14.213Z,15.90
2023-05-21T02:40:42.384Z,15.90
2023-05-21T02:43:10.554Z,15.90
2023-05-21T02:45:40.530Z,15.80
2023-05-21T02:48:08.786Z,15.90
2023-05-21T02:50:37.079Z,15.80
2023-05-21T02:53:05.733Z,15.80
2023-05-21T02:55:34.018Z,15.90
2023-05-21T02:58:02.324Z,15.90
2023-05-21T03:00:30.775Z,15.80
2023-05-21T03:03:01.665Z,15.80
2023-05-21T03:05:29.961Z,15.80
2023-05-21T03:07:58.363Z,15.90
2023-05-21T03:10:26.607Z,15.90
2023-05-21T03:12:54.878Z,15.90
2023-05-21T03:15:24.491Z,15.80
2023-05-21T03:17:54.246Z,15.90
2023-05-21T03:20:23.987Z,15.80
2023-05-21T03:22:52.836Z,15.80
2023-05-21T03:25:21.622Z,15.80
2023-05-21T03:27:49.827Z,15.80
2023-05-21T03:30:18.169Z,15.80
2023-05-21T03:32:46.458Z,15.80
2023-05-21T03:35:14.809Z,15.80
2023-05-21T03:37:44.355Z,15.80
2023-05-21T03:40:13.745Z,15.80
2023-05-21T03:42:41.907Z,15.80
2023-05-21T03:45:11.493Z,15.80
2023-05-21T03:47:39.724Z,15.80
2023-05-21T03:50:09.464Z,15.80
2023-05-21T03:52:37.697Z,15.80
2023-05-21T03:55:08.033Z,15.80
2023-05-21T03:57:37.402Z,15.80
2023-05-21T04:00:08.241Z,15.80
2023-05-21T04:02:36.605Z,15.80
2023-05-21T04:05:05.056Z,15.80
2023-05-21T04:07:33.456Z,15.80
2023-05-21T04:10:01.991Z,15.70
2023-05-21T04:12:31.558Z,15.80
2023-05-21T04:14:59.793Z,15.70
2023-05-21T04:17:28.520Z,15.80
2023-05-21T04:19:56.798Z,15.80
2023-05-21T04:22:27.344Z,15.80
2023-05-21T04:24:55.506Z,15.80
2023-05-21T04:27:24.672Z,15.80
2023-05-21T04:29:54.984Z,15.70
2023-05-21T04:32:23.225Z,15.70
2023-05-21T04:34:51.467Z,15.70
2023-05-21T04:37:19.731Z,15.70
2023-05-21T04:39:48.058Z,15.70
2023-05-21T04:42:16.224Z,15.70
2023-05-21T04:44:44.556Z,15.70
2023-05-21T04:47:14.868Z,15.70
2023-05-21T04:49:43.229Z,15.70
2023-05-21T04:52:11.495Z,15.70
2023-05-21T04:54:41.979Z,15.60
2023-05-21T04:57:10.315Z,15.60
2023-05-21T04:59:39.410Z,15.70
2023-05-21T05:02:07.625Z,15.60
2023-05-21T05:04:37.357Z,15.70
2023-05-21T05:07:05.914Z,15.70
2023-05-21T05:09:34.154Z,15.70
2023-05-21T05:12:02.473Z,15.60
2023-05-21T05:14:30.655Z,15.60
2023-05-21T05:17:00.549Z,15.60
2023-05-21T05:19:29.013Z,15.70
2023-05-21T05:21:58.681Z,15.70
2023-05-21T05:24:26.840Z,15.80
2023-05-21T05:26:55.013Z,15.80
2023-05-21T05:29:23.161Z,15.80
2023-05-21T05:31:51.339Z,15.90
2023-05-21T05:34:19.908Z,15.90
2023-05-21T05:36:48.075Z,15.90
2023-05-21T05:39:17.640Z,15.90
2023-05-21T05:41:45.900Z,16.00
2023-05-21T05:44:14.077Z,15.90
2023-05-21T05:46:42.563Z,16.00
2023-05-21T05:49:11.091Z,16.00
2023-05-21T05:51:39.234Z,16.00
2023-05-21T05:54:07.651Z,16.10
2023-05-21T05:56:37.208Z,16.10
2023-05-21T05:59:05.480Z,16.10
2023-05-21T06:01:34.339Z,16.10
2023-05-21T06:04:02.542Z,16.10
2023-05-21T06:06:31.617Z,16.20
2023-05-21T06:08:59.863Z,16.20
2023-05-21T06:11:28.120Z,16.20
2023-05-21T06:14:01.058Z,16.20
2023-05-21T06:16:31.355Z,16.20
2023-05-21T06:18:59.826Z,16.30
2023-05-21T06:21:28.024Z,16.30
2023-05-21T06:23:56.331Z,16.30
2023-05-21T06:26:24.840Z,16.40
2023-05-21T06:28:53.046Z,16.40
2023-05-21T06:31:22.806Z,16.40
2023-05-21T06:33:51.271Z,16.40
2023-05-21T06:36:19.556Z,16.50
2023-05-21T06:38:48.061Z,16.60
2023-05-21T06:41:16.304Z,16.70
2023-05-21T06:43:44.789Z,16.70
2023-05-21T06:46:12.987Z,16.80
2023-05-21T06:48:42.648Z,16.80
2023-05-21T06:51:10.821Z,16.80
2023-05-21T06:53:39.064Z,16.80
2023-05-21T06:56:07.488Z,16.80
2023-05-21T06:58:35.699Z,16.90
2023-05-21T07:01:04.001Z,17.00
2023-05-21T07:03:32.492Z,17.10
2023-05-21T07:06:02.509Z,17.20
2023-05-21T07:08:30.744Z,17.30
2023-05-21T07:10:59.018Z,17.30
2023-05-21T07:13:27.391Z,17.40
2023-05-21T07:15:55.908Z,17.50
2023-05-21T07:18:24.139Z,17.60
2023-05-21T07:20:52.318Z,17.60
2023-05-21T07:23:22.353Z,17.70
2023-05-21T07:25:50.668Z,17.80
2023-05-21T07:28:19.290Z,17.90
2023-05-21T07:30:47.696Z,17.90
2023-05-21T07:33:16.420Z,17.90
2023-05-21T07:35:45.052Z,18.00
2023-05-21T07:38:13.297Z,18.00
2023-05-21T07:40:43.264Z,18.00
2023-05-21T07:43:11.567Z,18.10
2023-05-21T07:45:39.829Z,18.10
2023-05-21T07:48:08.382Z,18.20
2023-05-21T07:50:37.653Z,18.20
2023-05-21T07:53:05.996Z,18.20
2023-05-21T07:55:34.370Z,18.20
2023-05-21T07:58:04.047Z,18.20
2023-05-21T08:00:44.037Z,18.30
2023-05-21T08:03:12.947Z,18.40
2023-05-21T08:05:41.482Z,18.30
2023-05-21T08:08:09.660Z,18.30
2023-05-21T08:10:37.876Z,18.40
2023-05-21T08:13:07.667Z,18.40
2023-05-21T08:15:36.196Z,18.40
2023-05-21T08:18:05.457Z,18.50
2023-05-21T08:20:34.224Z,18.50
2023-05-21T08:23:02.796Z,18.50
2023-05-21T08:25:31.143Z,18.50
2023-05-21T08:27:59.356Z,18.50
2023-05-21T08:30:29.091Z,18.50
2023-05-21T08:32:57.378Z,18.60
2023-05-21T08:35:25.665Z,18.60
2023-05-21T08:37:53.864Z,18.70
2023-05-21T08:40:22.083Z,18.80
2023-05-21T08:42:50.999Z,18.90
2023-05-21T08:45:22.739Z,18.90
2023-05-21T08:47:57.537Z,19.00
2023-05-21T08:50:28.148Z,19.00
2023-05-21T08:52:58.887Z,19.00
2023-05-21T08:55:27.572Z,19.10
2023-05-21T08:57:56.414Z,19.20
2023-05-21T09:00:24.597Z,19.20
2023-05-21T09:02:56.161Z,19.30
2023-05-21T09:05:25.959Z,19.30
2023-05-21T09:08:06.804Z,19.40
2023-05-21T09:10:37.900Z,19.40
2023-05-21T09:13:08.001Z,19.50
2023-05-21T09:15:36.561Z,19.50
2023-05-21T09:18:06.413Z,19.60
2023-05-21T09:20:34.941Z,19.70
2023-05-21T09:23:04.993Z,19.70
2023-05-21T09:25:33.447Z,19.80
2023-05-21T09:28:01.764Z,19.80
2023-05-21T09:30:31.776Z,19.90
2023-05-21T09:33:01.765Z,20.00
2023-05-21T09:35:31.707Z,20.00
2023-05-21T09:37:59.974Z,20.20
2023-05-21T09:40:28.244Z,20.30
2023-05-21T09:42:56.782Z,20.30
2023-05-21T09:45:27.193Z,20.40
2023-05-21T09:47:56.563Z,20.40
2023-05-21T09:50:27.640Z,20.50
2023-05-21T09:52:58.173Z,20.50
2023-05-21T09:55:27.583Z,20.60
2023-05-21T09:57:56.038Z,20.70
2023-05-21T10:00:27.460Z,20.70
2023-05-21T10:02:57.322Z,20.80
2023-05-21T10:05:28.391Z,20.80
2023-05-21T10:08:02.074Z,20.90
2023-05-21T10:10:31.454Z,21.00
2023-05-21T10:13:01.975Z,21.10
2023-05-21T10:15:33.399Z,21.10
2023-05-21T10:18:02.635Z,21.20
2023-05-21T10:20:31.372Z,21.30
2023-05-21T10:23:02.052Z,21.30
2023-05-21T10:25:31.760Z,21.40
2023-05-21T10:28:00.146Z,21.40
2023-05-21T10:30:28.778Z,21.50
2023-05-21T10:32:57.932Z,21.50
2023-05-21T10:35:26.837Z,21.60
2023-05-21T10:37:57.969Z,21.60
2023-05-21T10:40:27.712Z,21.70
2023-05-21T10:43:23.008Z,21.70
2023-05-21T10:46:08.950Z,21.80
2023-05-21T10:48:56.844Z,21.90
2023-05-21T10:51:28.982Z,21.90
2023-05-21T10:54:27.057Z,22.00
2023-05-21T10:57:09.815Z,22.00
2023-05-21T10:59:43.248Z,22.10
2023-05-21T11:02:13.990Z,22.20
2023-05-21T11:04:44.260Z,22.30
2023-05-21T11:07:13.344Z,22.30
2023-05-21T11:09:41.561Z,22.40
2023-05-21T11:12:12.888Z,22.40
2023-05-21T11:14:43.518Z,22.50
2023-05-21T11:17:13.825Z,22.60
2023-05-21T11:19:43.381Z,22.60
2023-05-21T11:22:22.777Z,22.70
2023-05-21T11:24:51.844Z,22.80
2023-05-21T11:27:39.801Z,22.80
2023-05-21T11:30:09.033Z,22.90
2023-05-21T11:32:40.958Z,23.00
2023-05-21T11:35:09.837Z,23.10
2023-05-21T11:37:41.665Z,23.10
2023-05-21T11:40:21.300Z,23.20
2023-05-21T11:42:52.972Z,23.30
2023-05-21T11:45:22.322Z,23.30
2023-05-21T11:47:52.040Z,23.30
2023-05-21T11:50:20.807Z,23.40
2023-05-21T11:52:50.329Z,23.50
2023-05-21T11:55:23.188Z,23.50
2023-05-21T11:57:55.046Z,23.60
2023-05-21T12:00:23.400Z,23.80
2023-05-21T12:02:53.312Z,23.80
2023-05-21T12:05:22.434Z,24.00
2023-05-21T12:07:51.096Z,24.00
2023-05-21T12:10:22.718Z,24.10
2023-05-21T12:12:56.436Z,24.20
2023-05-21T12:15:27.312Z,24.30
2023-05-21T12:17:56.855Z,24.40
2023-05-21T12:20:28.428Z,24.50
2023-05-21T12:22:58.959Z,24.50
2023-05-21T12:25:27.540Z,24.60
2023-05-21T12:27:58.603Z,24.70
2023-05-21T12:30:27.436Z,24.70
2023-05-21T12:32:59.477Z,24.80
2023-05-21T12:35:27.826Z,24.90
2023-05-21T12:37:56.578Z,24.90
2023-05-21T12:40:36.169Z,25.00
2023-05-21T12:43:06.300Z,25.00
2023-05-21T12:45:34.683Z,25.10
2023-05-21T12:48:03.252Z,25.20
2023-05-21T12:50:31.552Z,25.20
2023-05-21T12:52:59.852Z,25.30
2023-05-21T12:55:28.090Z,25.40
2023-05-21T12:58:07.970Z,25.60
2023-05-21T13:00:36.851Z,25.90
2023-05-21T13:03:06.242Z,26.10
2023-05-21T13:05:35.535Z,26.30
2023-05-21T13:08:03.980Z,26.50
2023-05-21T13:10:32.207Z,26.70
2023-05-21T13:13:00.458Z,26.80
2023-05-21T13:15:30.258Z,27.00
2023-05-21T13:18:01.361Z,27.10
2023-05-21T13:20:30.151Z,27.20
2023-05-21T13:22:59.062Z,27.40
2023-05-21T13:25:29.421Z,27.50
2023-05-21T13:27:58.310Z,27.70
2023-05-21T13:30:26.749Z,27.90
2023-05-21T13:32:56.643Z,28.10
2023-05-21T13:35:24.937Z,28.40
2023-05-21T13:37:53.175Z,28.60
2023-05-21T13:40:21.463Z,28.70
2023-05-21T13:42:50.821Z,29.00
2023-05-21T13:45:21.065Z,29.20
2023-05-21T13:47:49.763Z,29.40
2023-05-21T13:50:19.405Z,29.60
2023-05-21T13:52:47.582Z,29.70
2023-05-21T13:55:16.696Z,29.90
2023-05-21T13:57:45.826Z,30.00
2023-05-21T14:00:16.283Z,30.20
2023-05-21T14:02:45.317Z,30.30
2023-05-21T14:05:13.926Z,30.30
2023-05-21T14:07:43.512Z,30.40
2023-05-21T14:10:12.745Z,30.50
2023-05-21T14:12:41.970Z,30.50
2023-05-21T14:15:11.918Z,30.60
2023-05-21T14:17:42.215Z,30.70
2023-05-21T14:20:11.329Z,30.90
2023-05-21T14:22:39.809Z,31.00
2023-05-21T14:25:10.285Z,31.10
2023-05-21T14:27:38.842Z,31.20
2023-05-21T14:30:08.351Z,31.30
2023-05-21T14:32:36.630Z,31.40
2023-05-21T14:35:06.090Z,31.50
2023-05-21T14:37:34.398Z,31.60
2023-05-21T14:40:02.684Z,31.70
2023-05-21T14:42:32.224Z,32.00
2023-05-21T14:45:16.922Z,32.10
2023-05-21T14:47:48.267Z,32.20
2023-05-21T14:50:18.269Z,32.30
2023-05-21T14:52:46.552Z,32.40
2023-05-21T14:55:16.612Z,32.40
2023-05-21T14:57:46.389Z,32.50
2023-05-21T15:00:15.139Z,32.50
2023-05-21T15:02:43.454Z,32.40
2023-05-21T15:05:11.804Z,32.30
2023-05-21T15:07:39.976Z,32.40
2023-05-21T15:10:09.904Z,32.40
2023-05-21T15:12:38.146Z,32.40
2023-05-21T15:15:09.450Z,32.30
2023-05-21T15:17:37.748Z,32.20
2023-05-21T15:20:07.178Z,32.30
2023-05-21T15:22:35.820Z,32.30
2023-05-21T15:25:05.403Z,32.40
2023-05-21T15:27:34.220Z,32.30
2023-05-21T15:30:02.939Z,32.40
2023-05-21T15:32:32.969Z,32.40
2023-05-21T15:35:01.467Z,32.30
2023-05-21T15:37:32.191Z,32.30
2023-05-21T15:40:00.711Z,32.40
2023-05-21T15:42:31.232Z,32.40
2023-05-21T15:44:59.580Z,32.40
2023-05-21T15:47:28.020Z,32.30
2023-05-21T15:49:58.812Z,32.20
2023-05-21T15:52:27.102Z,32.00
2023-05-21T15:54:55.515Z,31.90
2023-05-21T15:57:23.675Z,31.80
2023-05-21T15:59:52.513Z,31.70
2023-05-21T16:02:20.931Z,31.50
2023-05-21T16:04:49.913Z,31.40
2023-05-21T16:07:19.545Z,31.40
2023-05-21T16:09:47.762Z,31.30
2023-05-21T16:12:16.049Z,31.30
2023-05-21T16:14:44.445Z,31.20
2023-05-21T16:17:12.758Z,31.20
2023-05-21T16:19:41.054Z,31.10
2023-05-21T16:22:10.758Z,30.90
2023-05-21T16:24:40.592Z,30.70
2023-05-21T16:27:08.765Z,30.60
2023-05-21T16:29:39.343Z,30.40
2023-05-21T16:32:09.607Z,30.30
2023-05-21T16:34:37.892Z,30.30
2023-05-21T16:37:08.469Z,30.30
2023-05-21T16:39:36.666Z,30.30
2023-05-21T16:42:06.715Z,30.30
2023-05-21T16:44:36.888Z,30.10
2023-05-21T16:47:05.373Z,29.90
2023-05-21T16:49:33.539Z,29.70
2023-05-21T16:52:02.163Z,29.50
2023-05-21T16:54:30.426Z,29.10
2023-05-21T16:56:58.760Z,28.90
2023-05-21T16:59:28.256Z,28.70
2023-05-21T17:01:56.502Z,28.50
2023-05-21T17:04:24.902Z,28.20
2023-05-21T17:06:53.160Z,27.90
2023-05-21T17:09:21.380Z,27.70
2023-05-21T17:11:49.819Z,27.40
2023-05-21T17:14:32.648Z,27.20
2023-05-21T17:17:03.700Z,27.00
2023-05-21T17:19:32.186Z,26.70
2023-05-21T17:22:00.602Z,26.60
2023-05-21T17:24:28.806Z,26.40
2023-05-21T17:26:57.078Z,26.20
2023-05-21T17:29:25.299Z,26.10
2023-05-21T17:31:53.617Z,25.90
2023-05-21T17:34:26.193Z,25.70
2023-05-21T17:36:55.150Z,25.50
2023-05-21T17:39:23.714Z,25.30
2023-05-21T17:41:52.332Z,25.00
2023-05-21T17:44:21.598Z,24.90
2023-05-21T17:46:51.155Z,24.60
2023-05-21T17:49:19.904Z,24.50
2023-05-21T17:51:49.763Z,24.30
2023-05-21T17:54:17.921Z,24.10
2023-05-21T17:56:46.669Z,23.90
2023-05-21T17:59:15.891Z,23.80
2023-05-21T18:01:44.110Z,23.60
2023-05-21T18:04:13.245Z,23.40
2023-05-21T18:06:41.565Z,23.30
2023-05-21T18:09:14.136Z,23.10
2023-05-21T18:11:44.372Z,23.00
2023-05-21T18:14:12.546Z,22.90
2023-05-21T18:16:41.129Z,22.80
2023-05-21T18:19:09.442Z,22.80
2023-05-21T18:21:38.590Z,22.70
2023-05-21T18:24:07.738Z,22.70
2023-05-21T18:26:37.328Z,22.70
2023-05-21T18:29:05.576Z,22.70
2023-05-21T18:31:34.006Z,22.70
2023-05-21T18:34:02.250Z,22.70
2023-05-21T18:36:38.254Z,22.60
2023-05-21T18:39:07.299Z,22.70
2023-05-21T18:41:37.148Z,22.70
2023-05-21T18:44:06.000Z,22.70
2023-05-21T18:46:34.604Z,22.60
2023-05-21T18:49:02.935Z,22.60
2023-05-21T18:51:31.462Z,22.60
2023-05-21T18:53:59.773Z,22.60
2023-05-21T18:56:27.894Z,22.60
2023-05-21T18:58:57.412Z,22.50
2023-05-21T19:01:25.674Z,22.50
2023-05-21T19:03:53.898Z,22.50
2023-05-21T19:06:25.356Z,22.50
2023-05-21T19:08:53.651Z,22.50
2023-05-21T19:11:23.611Z,22.50
2023-05-21T19:13:51.967Z,22.40
2023-05-21T19:16:21.573Z,22.50
2023-05-21T19:18:49.991Z,22.40
2023-05-21T19:21:18.479Z,22.40
2023-05-21T19:23:53.154Z,22.40
2023-05-21T19:26:22.585Z,22.40
2023-05-21T19:28:53.308Z,22.40
2023-05-21T19:31:25.190Z,22.30
2023-05-21T19:33:54.000Z,22.40
2023-05-21T19:36:22.781Z,22.30
2023-05-21T19:38:51.643Z,22.20
2023-05-21T19:41:21.482Z,22.20
2023-05-21T19:43:49.875Z,22.10
2023-05-21T19:46:20.263Z,22.00
2023-05-21T19:48:51.565Z,22.00
2023-05-21T19:51:19.933Z,21.90
2023-05-21T19:53:48.103Z,21.90
2023-05-21T19:56:16.459Z,21.90
2023-05-21T19:58:47.098Z,21.70
2023-05-21T20:01:15.913Z,21.70
2023-05-21T20:03:45.328Z,21.70
2023-05-21T20:06:18.669Z,21.60
2023-05-21T20:08:46.871Z,21.50
2023-05-21T20:11:15.018Z,21.50
2023-05-21T20:13:48.361Z,21.40
2023-05-21T20:16:18.284Z,21.40
2023-05-21T20:18:47.071Z,21.30
2023-05-21T20:21:18.410Z,21.20
2023-05-21T20:23:46.975Z,21.10
2023-05-21T20:26:15.681Z,21.10
2023-05-21T20:28:44.156Z,21.10
2023-05-21T20:31:12.353Z,21.00
2023-05-21T20:33:40.965Z,21.00
2023-05-21T20:36:09.241Z,21.00
2023-05-21T20:38:38.710Z,20.90
2023-05-21T20:41:06.898Z,20.90
2023-05-21T20:43:37.202Z,20.90
2023-05-21T20:46:05.943Z,20.90
2023-05-21T20:48:35.195Z,20.80
2023-05-21T20:51:04.376Z,20.80
2023-05-21T20:53:33.664Z,20.80
2023-05-21T20:56:07.897Z,20.80
2023-05-21T20:58:36.188Z,20.80
2023-05-21T21:01:04.468Z,20.70
2023-05-21T21:03:33.755Z,20.70
2023-05-21T21:06:03.036Z,20.70
2023-05-21T21:08:31.229Z,20.70
2023-05-21T21:10:59.390Z,20.60
2023-05-21T21:13:28.884Z,20.50
2023-05-21T21:15:57.087Z,20.50
2023-05-21T21:18:25.307Z,20.40
2023-05-21T21:20:54.009Z,20.40
2023-05-21T21:23:22.212Z,20.30
2023-05-21T21:25:50.601Z,20.30
2023-05-21T21:28:18.786Z,20.30
2023-05-21T21:30:48.530Z,20.30
2023-05-21T21:33:17.278Z,20.30
2023-05-21T21:35:45.536Z,20.30
2023-05-21T21:38:13.693Z,20.20
2023-05-21T21:40:41.943Z,20.20
2023-05-21T21:43:10.236Z,20.20
2023-05-21T21:45:38.391Z,20.10
2023-05-21T21:48:08.485Z,20.10
2023-05-21T21:50:36.846Z,20.00
2023-05-21T21:53:05.883Z,20.00
2023-05-21T21:55:34.174Z,20.00
2023-05-21T21:58:02.381Z,19.90
2023-05-21T22:00:30.541Z,19.90
2023-05-21T22:02:58.917Z,19.90
2023-05-21T22:05:31.289Z,19.80
2023-05-21T22:07:59.515Z,19.80
2023-05-21T22:10:27.675Z,19.80
2023-05-21T22:12:56.295Z,19.80
2023-05-21T22:15:24.934Z,19.80
2023-05-21T22:17:53.468Z,19.80
2023-05-21T22:20:22.931Z,19.80
2023-05-21T22:22:54.771Z,19.80
2023-05-21T22:25:23.804Z,19.80
2023-05-21T22:27:52.633Z,19.80
2023-05-21T22:30:21.128Z,19.80
2023-05-21T22:32:49.460Z,19.80
2023-05-21T22:35:17.682Z,19.80
2023-05-21T22:37:46.634Z,19.70
2023-05-21T22:40:16.279Z,19.70
2023-05-21T22:42:46.191Z,19.80
2023-05-21T22:45:15.228Z,19.70
2023-05-21T22:47:43.527Z,19.70
2023-05-21T22:50:12.786Z,19.70
2023-05-21T22:52:41.849Z,19.60
2023-05-21T22:55:11.481Z,19.60
2023-05-21T22:57:41.130Z,19.60
2023-05-21T23:00:10.848Z,19.60
2023-05-21T23:02:39.135Z,19.50
2023-05-21T23:05:07.702Z,19.60
2023-05-21T23:07:35.892Z,19.50
2023-05-21T23:10:04.327Z,19.50
2023-05-21T23:12:32.536Z,19.50
2023-05-21T23:15:04.285Z,19.50
2023-05-21T23:17:32.477Z,19.50
2023-05-21T23:20:00.636Z,19.50
2023-05-21T23:22:28.868Z,19.40
2023-05-21T23:24:57.008Z,19.40
2023-05-21T23:27:25.164Z,19.40
2023-05-21T23:29:53.305Z,19.40
2023-05-21T23:32:23.224Z,19.40
2023-05-21T23:34:51.397Z,19.40
2023-05-21T23:37:20.134Z,19.40
2023-05-21T23:39:49.671Z,19.30
2023-05-21T23:42:18.596Z,19.40
2023-05-21T23:44:46.935Z,19.30
2023-05-21T23:47:15.085Z,19.30
2023-05-21T23:49:44.567Z,19.30
2023-05-21T23:52:13.468Z,19.30
2023-05-21T23:54:41.609Z,19.30
2023-05-21T23:57:09.803Z,19.20
2023-05-21T23:59:38.059Z,19.20
